Time;durP1;ratioP1;P1;durP2;ratioP2;P2;SDS_P1;SDS_P2;PMS_P1;PMS_P2;Temp;Humidity;BMP_temperature;BMP_pressure;BME280_temperature;BME280_humidity;BME280_pressure;Samples;Min_cycle;Max_cycle;Signal;HPM_P1;HPM_P2
2022/07/10 00:00:45;;;;;;;5.72;4.20;;;;;;;;;;5095699;28;20236;-44
2022/07/10 00:03:12;;;;;;;7.65;4.38;;;;;;;;;;5095348;28;20539;-44
2022/07/10 00:05:39;;;;;;;8.00;4.53;;;;;;;;;;5095284;28;20732;-45
2022/07/10 00:08:06;;;;;;;5.88;4.22;;;;;;;;;;5095577;28;20203;-44
2022/07/10 00:10:33;;;;;;;5.10;3.90;;;;;;;;;;5095781;28;20194;-44
2022/07/10 00:13:00;;;;;;;8.65;4.28;;;;;;;;;;5095401;28;20194;-44
2022/07/10 00:15:27;;;;;;;7.40;4.47;;;;;;;;;;5095443;28;20202;-46
2022/07/10 00:17:54;;;;;;;12.63;4.22;;;;;;;;;;5095714;28;20256;-44
2022/07/10 00:20:21;;;;;;;6.75;4.00;;;;;;;;;;5095131;28;20214;-45
2022/07/10 00:22:48;;;;;;;7.75;4.35;;;;;;;;;;5095191;28;20206;-44
2022/07/10 00:25:15;;;;;;;8.43;4.32;;;;;;;;;;5095293;28;20712;-46
2022/07/10 00:27:43;;;;;;;7.20;4.30;;;;;;;;;;5095093;28;20199;-45
2022/07/10 00:30:10;;;;;;;11.23;4.45;;;;;;;;;;5095069;28;20199;-45
2022/07/10 00:32:37;;;;;;;10.90;4.82;;;;;;;;;;5095343;28;20228;-44
2022/07/10 00:35:05;;;;;;;8.68;3.80;;;;;;;;;;5095140;28;20198;-44
2022/07/10 00:37:33;;;;;;;10.27;4.68;;;;;;;;;;5095055;28;20195;-44
2022/07/10 00:40:00;;;;;;;7.57;4.30;;;;;;;;;;5095124;28;20198;-44
2022/07/10 00:42:27;;;;;;;6.40;4.60;;;;;;;;;;5094978;28;20210;-44
2022/07/10 00:44:54;;;;;;;6.35;3.97;;;;;;;;;;5095001;28;20203;-44
2022/07/10 00:47:21;;;;;;;8.05;4.38;;;;;;;;;;5095121;28;20217;-44
2022/07/10 00:49:49;;;;;;;7.22;4.30;;;;;;;;;;5095454;28;20202;-43
2022/07/10 00:52:18;;;;;;;7.70;4.65;;;;;;;;;;5094852;28;20648;-44
2022/07/10 00:54:47;;;;;;;9.32;4.18;;;;;;;;;;5094088;28;20256;-44
2022/07/10 00:57:15;;;;;;;8.82;3.90;;;;;;;;;;5094804;28;20279;-44
2022/07/10 00:59:44;;;;;;;8.77;4.65;;;;;;;;;;5094124;28;20209;-44
2022/07/10 01:02:11;;;;;;;6.82;4.00;;;;;;;;;;5094870;28;20199;-44
2022/07/10 01:04:38;;;;;;;7.85;4.28;;;;;;;;;;5094753;28;20323;-44
2022/07/10 01:07:05;;;;;;;8.63;4.10;;;;;;;;;;5094537;28;20226;-44
2022/07/10 01:09:33;;;;;;;7.65;3.92;;;;;;;;;;5094591;28;20240;-45
2022/07/10 01:12:01;;;;;;;10.02;4.03;;;;;;;;;;5094838;28;20225;-44
2022/07/10 01:14:30;;;;;;;8.73;4.30;;;;;;;;;;5095402;28;20530;-44
2022/07/10 01:16:59;;;;;;;8.77;3.75;;;;;;;;;;5098687;28;20210;-44
2022/07/10 01:19:26;;;;;;;8.80;4.53;;;;;;;;;;5098890;28;20213;-44
2022/07/10 01:21:54;;;;;;;6.43;4.30;;;;;;;;;;5098760;28;20234;-44
2022/07/10 01:24:20;;;;;;;7.70;4.47;;;;;;;;;;5098854;28;20187;-43
2022/07/10 01:26:48;;;;;;;6.93;4.07;;;;;;;;;;5098389;28;20230;-43
2022/07/10 01:29:15;;;;;;;5.18;3.72;;;;;;;;;;5098338;28;20256;-44
2022/07/10 01:31:42;;;;;;;7.15;3.72;;;;;;;;;;5098620;28;20198;-43
2022/07/10 01:34:09;;;;;;;6.68;3.75;;;;;;;;;;5098530;28;20206;-44
2022/07/10 01:36:37;;;;;;;6.38;4.22;;;;;;;;;;5098146;28;20222;-43
2022/07/10 01:39:05;;;;;;;11.95;4.40;;;;;;;;;;5098044;28;20236;-44
2022/07/10 01:41:33;;;;;;;8.27;4.47;;;;;;;;;;5098927;28;20195;-43
2022/07/10 01:44:00;;;;;;;8.48;4.35;;;;;;;;;;5097985;28;20233;-45
2022/07/10 01:46:27;;;;;;;7.32;4.28;;;;;;;;;;5097905;28;20236;-44
2022/07/10 01:48:54;;;;;;;8.82;3.92;;;;;;;;;;5098013;28;20203;-43
2022/07/10 01:51:21;;;;;;;8.27;4.22;;;;;;;;;;5097660;28;20541;-44
2022/07/10 01:53:48;;;;;;;6.00;3.80;;;;;;;;;;5097876;28;20221;-44
2022/07/10 01:56:15;;;;;;;8.10;4.00;;;;;;;;;;5097597;28;20241;-44
2022/07/10 01:58:43;;;;;;;7.15;4.03;;;;;;;;;;5097579;28;20214;-44
2022/07/10 02:01:10;;;;;;;9.55;4.22;;;;;;;;;;5097676;28;20301;-44
2022/07/10 02:06:24;;;;;;;6.97;4.43;;;;;;;;;;5097710;28;20206;-44
2022/07/10 02:08:51;;;;;;;11.13;4.20;;;;;;;;;;5097608;28;20199;-43
2022/07/10 02:11:18;;;;;;;7.95;4.32;;;;;;;;;;5097544;28;20275;-45
2022/07/10 02:13:45;;;;;;;7.13;4.38;;;;;;;;;;5097294;28;20218;-46
2022/07/10 02:16:12;;;;;;;8.88;4.40;;;;;;;;;;5097170;28;20221;-44
2022/07/10 02:18:40;;;;;;;8.65;4.65;;;;;;;;;;5097146;28;20641;-44
2022/07/10 02:21:08;;;;;;;7.68;4.00;;;;;;;;;;5097113;28;20238;-44
2022/07/10 02:23:35;;;;;;;6.63;4.00;;;;;;;;;;5097398;28;20202;-45
2022/07/10 02:26:02;;;;;;;11.40;4.18;;;;;;;;;;5095716;28;20295;-44
2022/07/10 02:28:29;;;;;;;9.50;4.78;;;;;;;;;;5096967;28;20210;-47
2022/07/10 02:30:57;;;;;;;10.15;4.78;;;;;;;;;;5096952;28;20206;-44
2022/07/10 02:33:24;;;;;;;8.73;4.80;;;;;;;;;;5097115;28;20199;-44
2022/07/10 02:35:52;;;;;;;7.65;4.88;;;;;;;;;;5096918;28;20202;-45
2022/07/10 02:38:19;;;;;;;8.23;4.32;;;;;;;;;;5097158;28;20202;-45
2022/07/10 02:40:46;;;;;;;6.13;3.85;;;;;;;;;;5096902;28;20251;-44
2022/07/10 02:43:15;;;;;;;7.82;4.70;;;;;;;;;;5096606;28;20280;-44
2022/07/10 02:45:42;;;;;;;7.57;4.57;;;;;;;;;;5096533;28;20645;-44
2022/07/10 02:48:15;;;;;;;8.82;4.80;;;;;;;;;;5097016;28;20195;-44
2022/07/10 02:50:42;;;;;;;10.77;4.65;;;;;;;;;;5096720;28;20218;-46
2022/07/10 02:53:09;;;;;;;9.85;4.80;;;;;;;;;;5096894;28;20575;-44
2022/07/10 02:55:36;;;;;;;9.27;4.55;;;;;;;;;;5096787;28;20674;-44
2022/07/10 02:58:04;;;;;;;9.15;4.80;;;;;;;;;;5096624;28;20195;-44
2022/07/10 03:00:31;;;;;;;10.45;5.07;;;;;;;;;;5096636;28;20633;-44
2022/07/10 03:02:58;;;;;;;7.93;4.90;;;;;;;;;;5097317;28;20285;-44
2022/07/10 03:05:25;;;;;;;7.45;5.10;;;;;;;;;;5096527;28;20551;-44
2022/07/10 03:07:52;;;;;;;9.75;4.97;;;;;;;;;;5096589;28;20535;-44
2022/07/10 03:10:19;;;;;;;9.23;5.00;;;;;;;;;;5096468;28;20573;-44
2022/07/10 03:12:46;;;;;;;9.35;4.65;;;;;;;;;;5096303;28;20252;-44
2022/07/10 03:15:14;;;;;;;7.63;4.97;;;;;;;;;;5096560;28;20221;-44
2022/07/10 03:17:41;;;;;;;7.57;5.05;;;;;;;;;;5096322;28;20664;-44
2022/07/10 03:20:09;;;;;;;5.00;4.25;;;;;;;;;;5096772;28;20202;-44
2022/07/10 03:22:36;;;;;;;12.05;4.88;;;;;;;;;;5096248;28;20580;-44
2022/07/10 03:25:04;;;;;;;12.20;5.18;;;;;;;;;;5096154;28;20198;-44
2022/07/10 03:27:31;;;;;;;10.88;5.75;;;;;;;;;;5096042;28;20222;-44
2022/07/10 03:29:58;;;;;;;8.13;5.88;;;;;;;;;;5096366;28;20237;-45
2022/07/10 03:32:25;;;;;;;11.27;5.85;;;;;;;;;;5095954;28;20632;-44
2022/07/10 03:34:52;;;;;;;13.48;6.03;;;;;;;;;;5096025;28;20206;-44
2022/07/10 03:37:19;;;;;;;11.00;6.82;;;;;;;;;;5095417;28;20633;-44
2022/07/10 03:39:46;;;;;;;10.82;6.57;;;;;;;;;;5096219;28;20203;-44
2022/07/10 03:42:13;;;;;;;11.02;6.47;;;;;;;;;;5096067;28;20214;-44
2022/07/10 03:44:40;;;;;;;11.88;6.55;;;;;;;;;;5095694;28;20648;-44
2022/07/10 03:47:07;;;;;;;11.70;7.10;;;;;;;;;;5095821;28;20225;-44
2022/07/10 03:49:34;;;;;;;12.88;6.55;;;;;;;;;;5096007;28;20198;-44
2022/07/10 03:52:02;;;;;;;13.10;7.10;;;;;;;;;;5096060;28;20289;-45
2022/07/10 03:54:29;;;;;;;12.20;6.70;;;;;;;;;;5095832;28;20213;-45
2022/07/10 03:59:43;;;;;;;14.55;6.47;;;;;;;;;;5095634;28;20597;-44
2022/07/10 04:02:10;;;;;;;15.80;6.85;;;;;;;;;;5095731;28;20308;-45
2022/07/10 04:04:37;;;;;;;11.98;6.63;;;;;;;;;;5095606;28;20206;-44
2022/07/10 04:07:05;;;;;;;11.65;6.63;;;;;;;;;;5095853;28;20226;-45
2022/07/10 04:09:32;;;;;;;11.18;6.20;;;;;;;;;;5095300;28;20203;-45
2022/07/10 04:11:59;;;;;;;11.68;6.53;;;;;;;;;;5095341;28;20199;-44
2022/07/10 04:14:26;;;;;;;12.73;6.20;;;;;;;;;;5095481;28;20198;-45
2022/07/10 04:16:53;;;;;;;8.70;6.30;;;;;;;;;;5095396;28;20210;-46
2022/07/10 04:19:21;;;;;;;15.23;6.50;;;;;;;;;;5095556;28;20293;-44
2022/07/10 04:21:48;;;;;;;15.35;6.97;;;;;;;;;;5095629;28;20249;-44
2022/07/10 04:24:16;;;;;;;8.65;6.50;;;;;;;;;;5095244;28;20593;-44
2022/07/10 04:26:44;;;;;;;11.88;7.18;;;;;;;;;;5095127;28;20271;-44
2022/07/10 04:29:12;;;;;;;12.18;6.63;;;;;;;;;;5095216;28;20247;-44
2022/07/10 04:31:39;;;;;;;12.02;6.78;;;;;;;;;;5095025;28;20251;-44
2022/07/10 04:34:06;;;;;;;9.88;6.55;;;;;;;;;;5094949;28;20206;-44
2022/07/10 04:36:33;;;;;;;11.02;6.72;;;;;;;;;;5095476;28;20222;-44
2022/07/10 04:39:00;;;;;;;10.65;6.93;;;;;;;;;;5095206;28;20229;-45
2022/07/10 04:41:27;;;;;;;11.63;6.45;;;;;;;;;;5095163;28;20206;-44
2022/07/10 04:43:54;;;;;;;10.10;6.30;;;;;;;;;;5094756;28;20640;-47
2022/07/10 04:46:21;;;;;;;14.70;6.60;;;;;;;;;;5085909;28;20239;-44
2022/07/10 04:48:48;;;;;;;8.05;5.60;;;;;;;;;;5087996;28;20551;-44
2022/07/10 04:51:15;;;;;;;11.82;5.25;;;;;;;;;;5093989;28;20696;-46
2022/07/10 04:53:42;;;;;;;6.97;5.38;;;;;;;;;;5090889;28;20234;-44
2022/07/10 04:56:09;;;;;;;11.50;5.78;;;;;;;;;;5088169;27;20227;-45
2022/07/10 04:58:36;;;;;;;8.73;5.22;;;;;;;;;;5093659;28;20251;-46
2022/07/10 05:01:04;;;;;;;10.30;5.82;;;;;;;;;;5093010;28;20608;-44
2022/07/10 05:03:31;;;;;;;7.25;5.20;;;;;;;;;;5094159;28;20226;-45
2022/07/10 05:05:58;;;;;;;10.23;4.82;;;;;;;;;;5093666;28;20226;-44
2022/07/10 05:08:25;;;;;;;8.23;4.85;;;;;;;;;;5094031;28;20226;-47
2022/07/10 05:10:52;;;;;;;7.93;4.80;;;;;;;;;;5093687;28;20238;-44
2022/07/10 05:13:18;;;;;;;8.50;5.50;;;;;;;;;;5093912;28;20235;-45
2022/07/10 05:15:47;;;;;;;7.65;4.70;;;;;;;;;;5093118;28;20222;-45
2022/07/10 05:18:14;;;;;;;7.35;5.22;;;;;;;;;;5093854;28;20233;-44
2022/07/10 05:20:43;;;;;;;9.68;5.03;;;;;;;;;;5093591;28;20563;-46
2022/07/10 05:23:11;;;;;;;7.07;5.25;;;;;;;;;;5093959;28;20552;-45
2022/07/10 05:25:38;;;;;;;7.97;5.22;;;;;;;;;;5093577;28;20373;-45
2022/07/10 05:28:05;;;;;;;8.13;5.22;;;;;;;;;;5093760;28;20333;-45
2022/07/10 05:30:33;;;;;;;7.50;4.88;;;;;;;;;;5093147;28;20226;-45
2022/07/10 05:33:00;;;;;;;9.32;4.93;;;;;;;;;;5093275;28;20726;-45
2022/07/10 05:35:27;;;;;;;8.50;4.32;;;;;;;;;;5094168;28;20547;-43
2022/07/10 05:37:54;;;;;;;7.32;4.70;;;;;;;;;;5093296;28;20563;-43
2022/07/10 05:40:21;;;;;;;7.72;4.80;;;;;;;;;;5093664;28;20226;-44
2022/07/10 05:42:48;;;;;;;6.80;4.35;;;;;;;;;;5093146;28;20317;-45
2022/07/10 05:45:16;;;;;;;7.45;4.28;;;;;;;;;;5093158;28;20231;-44
2022/07/10 05:47:42;;;;;;;5.70;3.72;;;;;;;;;;5086974;28;20238;-48
2022/07/10 05:50:09;;;;;;;8.18;3.60;;;;;;;;;;5092472;28;20219;-49
2022/07/10 05:52:37;;;;;;;8.23;4.20;;;;;;;;;;5089394;28;20322;-44
2022/07/10 05:55:04;;;;;;;6.53;3.65;;;;;;;;;;5091140;28;20546;-44
2022/07/10 05:57:31;;;;;;;5.50;3.83;;;;;;;;;;5091926;28;20292;-44
2022/07/10 05:59:58;;;;;;;4.55;3.38;;;;;;;;;;5092666;28;20218;-45
2022/07/10 06:02:25;;;;;;;7.22;3.33;;;;;;;;;;5095722;28;20215;-43
2022/07/10 06:04:52;;;;;;;5.15;3.10;;;;;;;;;;5095221;27;20219;-44
2022/07/10 06:07:20;;;;;;;5.00;3.53;;;;;;;;;;5092503;28;20234;-49
2022/07/10 06:09:47;;;;;;;8.20;3.53;;;;;;;;;;5093116;28;20683;-45
2022/07/10 06:12:15;;;;;;;4.25;2.60;;;;;;;;;;5095721;28;20227;-44
2022/07/10 06:14:42;;;;;;;6.18;2.35;;;;;;;;;;5094749;28;20229;-44
2022/07/10 06:17:09;;;;;;;7.30;2.90;;;;;;;;;;5095367;28;20644;-47
2022/07/10 06:19:36;;;;;;;3.28;2.13;;;;;;;;;;5092506;28;20310;-45
2022/07/10 06:24:49;;;;;;;4.30;2.40;;;;;;;;;;5094125;28;20657;-51
2022/07/10 06:27:16;;;;;;;3.38;2.22;;;;;;;;;;5092476;28;20227;-46
2022/07/10 06:29:44;;;;;;;2.67;2.00;;;;;;;;;;5094304;28;20229;-45
2022/07/10 06:32:11;;;;;;;3.67;2.15;;;;;;;;;;5092623;28;20227;-46
2022/07/10 06:34:38;;;;;;;4.82;2.15;;;;;;;;;;5094215;28;20222;-48
2022/07/10 06:37:05;;;;;;;6.78;2.33;;;;;;;;;;5096720;28;20237;-43
2022/07/10 06:39:34;;;;;;;5.03;2.03;;;;;;;;;;5095861;28;20237;-46
2022/07/10 06:42:07;;;;;;;5.00;2.22;;;;;;;;;;5095979;28;20218;-46
2022/07/10 06:44:40;;;;;;;2.88;2.00;;;;;;;;;;5094060;28;20238;-46
2022/07/10 06:49:54;;;;;;;5.88;2.92;;;;;;;;;;5095434;28;20223;-44
2022/07/10 06:52:21;;;;;;;6.38;2.08;;;;;;;;;;5095294;28;20223;-44
2022/07/10 06:54:48;;;;;;;2.33;1.85;;;;;;;;;;5093282;27;20680;-46
2022/07/10 06:57:18;;;;;;;3.38;1.80;;;;;;;;;;5095073;28;20229;-44
2022/07/10 06:59:46;;;;;;;3.10;2.05;;;;;;;;;;5093892;28;20237;-48
2022/07/10 07:02:13;;;;;;;3.30;1.63;;;;;;;;;;5095672;28;20222;-43
2022/07/10 07:04:40;;;;;;;1.90;1.35;;;;;;;;;;5095690;28;20226;-45
2022/07/10 07:07:07;;;;;;;3.53;1.75;;;;;;;;;;5095438;28;20672;-44
2022/07/10 07:09:34;;;;;;;3.33;1.70;;;;;;;;;;5095490;28;20234;-46
2022/07/10 07:12:01;;;;;;;7.13;1.75;;;;;;;;;;5094498;28;20218;-47
2022/07/10 07:14:28;;;;;;;4.88;1.60;;;;;;;;;;5094972;28;20618;-42
2022/07/10 07:17:06;;;;;;;3.90;1.50;;;;;;;;;;5080438;28;20219;-50
2022/07/10 07:25:09;;;;;;;5.78;1.67;;;;;;;;;;5095402;28;20612;-49
2022/07/10 07:27:38;;;;;;;4.85;1.33;;;;;;;;;;5095257;28;20226;-49
2022/07/10 07:30:10;;;;;;;3.47;1.30;;;;;;;;;;5094268;28;20231;-48
2022/07/10 07:32:38;;;;;;;1.98;1.08;;;;;;;;;;5093873;28;20219;-50
2022/07/10 07:35:06;;;;;;;2.40;1.30;;;;;;;;;;5095487;28;20249;-47
2022/07/10 07:37:40;;;;;;;1.35;1.20;;;;;;;;;;5094837;28;20559;-50
2022/07/10 07:40:14;;;;;;;2.65;1.50;;;;;;;;;;5095383;28;20222;-48
2022/07/10 07:42:42;;;;;;;3.03;1.60;;;;;;;;;;5094962;28;20218;-49
2022/07/10 07:45:09;;;;;;;6.53;1.20;;;;;;;;;;5093944;28;20219;-47
2022/07/10 07:47:47;;;;;;;4.72;1.10;;;;;;;;;;5094498;28;20234;-48
2022/07/10 07:50:19;;;;;;;2.60;1.25;;;;;;;;;;5094917;28;20242;-48
2022/07/10 07:52:47;;;;;;;3.28;1.10;;;;;;;;;;5094515;28;20254;-48
2022/07/10 07:55:15;;;;;;;3.97;1.20;;;;;;;;;;5095067;28;20292;-47
2022/07/10 07:57:43;;;;;;;2.15;0.95;;;;;;;;;;5093779;28;20299;-47
2022/07/10 08:00:12;;;;;;;2.20;0.90;;;;;;;;;;5094306;28;20309;-47
2022/07/10 08:02:40;;;;;;;3.15;1.00;;;;;;;;;;5094290;28;20563;-47
2022/07/10 08:05:08;;;;;;;1.80;0.82;;;;;;;;;;5094538;28;20222;-47
2022/07/10 08:07:36;;;;;;;5.78;1.13;;;;;;;;;;5094504;28;20237;-47
2022/07/10 08:10:03;;;;;;;1.83;1.02;;;;;;;;;;5094935;28;20231;-51
2022/07/10 08:12:31;;;;;;;1.65;0.88;;;;;;;;;;5093066;28;20222;-48
2022/07/10 08:14:58;;;;;;;1.98;0.90;;;;;;;;;;5093622;28;20605;-49
2022/07/10 08:17:26;;;;;;;1.05;0.68;;;;;;;;;;5094470;28;20239;-48
2022/07/10 08:19:54;;;;;;;3.30;0.75;;;;;;;;;;5094311;28;20222;-48
2022/07/10 08:22:21;;;;;;;4.00;1.02;;;;;;;;;;5093099;28;20759;-49
2022/07/10 08:24:48;;;;;;;3.17;0.80;;;;;;;;;;5093976;28;20668;-51
2022/07/10 08:27:15;;;;;;;2.05;0.70;;;;;;;;;;5094316;28;20230;-46
2022/07/10 08:29:43;;;;;;;1.73;0.80;;;;;;;;;;5093464;28;20234;-55
2022/07/10 08:32:10;;;;;;;1.52;0.80;;;;;;;;;;5093887;28;20235;-48
2022/07/10 08:34:37;;;;;;;1.55;0.60;;;;;;;;;;5093671;28;20572;-53
2022/07/10 08:37:04;;;;;;;4.45;0.93;;;;;;;;;;5094166;28;20222;-48
2022/07/10 08:39:32;;;;;;;3.42;0.75;;;;;;;;;;5094115;28;20222;-53
2022/07/10 08:41:59;;;;;;;2.25;0.80;;;;;;;;;;5093424;28;20540;-49
2022/07/10 08:44:28;;;;;;;4.97;0.80;;;;;;;;;;5092889;28;20230;-48
2022/07/10 08:46:56;;;;;;;2.25;0.80;;;;;;;;;;5092022;28;20250;-48
2022/07/10 08:49:28;;;;;;;1.20;0.55;;;;;;;;;;5093764;28;20219;-48
2022/07/10 08:52:06;;;;;;;5.35;0.68;;;;;;;;;;5093612;28;20222;-48
2022/07/10 08:54:34;;;;;;;3.92;0.95;;;;;;;;;;5090955;28;20230;-53
2022/07/10 08:57:03;;;;;;;1.83;0.70;;;;;;;;;;5093617;28;20241;-51
2022/07/10 08:59:30;;;;;;;3.15;0.60;;;;;;;;;;5093287;28;20296;-50
2022/07/10 09:01:58;;;;;;;5.20;0.68;;;;;;;;;;5091574;28;20537;-48
2022/07/10 09:04:27;;;;;;;2.33;0.68;;;;;;;;;;5090886;28;20261;-52
2022/07/10 09:06:54;;;;;;;2.53;0.50;;;;;;;;;;5089542;28;20218;-48
2022/07/10 09:09:23;;;;;;;3.17;0.80;;;;;;;;;;5092068;28;20554;-49
2022/07/10 09:11:57;;;;;;;5.65;0.75;;;;;;;;;;5091896;28;20267;-47
2022/07/10 09:14:32;;;;;;;2.05;0.70;;;;;;;;;;5089493;28;20669;-48
2022/07/10 09:17:01;;;;;;;3.65;0.80;;;;;;;;;;5094020;28;20218;-49
2022/07/10 09:19:29;;;;;;;4.63;0.70;;;;;;;;;;5093953;28;20223;-52
2022/07/10 09:22:06;;;;;;;4.05;0.70;;;;;;;;;;5093435;28;20248;-53
2022/07/10 09:24:40;;;;;;;4.18;0.90;;;;;;;;;;5089859;28;20309;-49
2022/07/10 09:27:08;;;;;;;1.88;0.90;;;;;;;;;;5088620;28;20222;-53
2022/07/10 09:29:46;;;;;;;6.13;1.00;;;;;;;;;;5093077;28;20226;-52
2022/07/10 09:32:16;;;;;;;1.88;0.80;;;;;;;;;;5081077;28;20234;-50
2022/07/10 09:34:46;;;;;;;1.23;0.65;;;;;;;;;;5087419;28;20264;-50
2022/07/10 09:37:27;;;;;;;1.67;0.70;;;;;;;;;;5090783;28;20262;-51
2022/07/10 09:39:54;;;;;;;1.27;0.70;;;;;;;;;;5093497;28;20254;-53
2022/07/10 09:42:39;;;;;;;1.48;0.60;;;;;;;;;;5094361;28;20656;-53
2022/07/10 09:45:12;;;;;;;2.28;0.77;;;;;;;;;;5094419;28;20237;-54
2022/07/10 09:47:50;;;;;;;8.00;0.70;;;;;;;;;;5096329;28;20576;-52
2022/07/10 09:50:25;;;;;;;3.35;0.70;;;;;;;;;;5096165;27;20223;-54
2022/07/10 09:53:03;;;;;;;1.48;0.60;;;;;;;;;;5096016;28;20228;-46
2022/07/10 09:55:33;;;;;;;3.20;0.75;;;;;;;;;;5096703;28;20272;-48
2022/07/10 09:58:00;;;;;;;3.42;0.90;;;;;;;;;;5097009;28;20284;-48
2022/07/10 10:00:28;;;;;;;1.92;0.80;;;;;;;;;;5115159;27;20226;-47
2022/07/10 10:02:58;;;;;;;3.13;0.80;;;;;;;;;;5117581;28;20230;-47
2022/07/10 10:05:53;;;;;;;2.50;0.82;;;;;;;;;;5102272;28;20296;-53
2022/07/10 10:08:42;;;;;;;3.75;0.60;;;;;;;;;;5096006;28;20226;-47
2022/07/10 10:11:14;;;;;;;2.35;0.77;;;;;;;;;;5097241;28;20194;-49
2022/07/10 10:13:43;;;;;;;4.40;0.75;;;;;;;;;;5096055;28;20578;-47
2022/07/10 10:16:10;;;;;;;2.60;0.75;;;;;;;;;;5097080;28;20225;-47
2022/07/10 10:20:36;;;;;;;4.93;0.70;;;;;;;;;;5096909;28;20641;-51
2022/07/10 10:21:25;;;;;;;2.25;0.70;;;;;;;;;;5094185;28;20234;-49
2022/07/10 10:23:54;;;;;;;4.15;1.00;;;;;;;;;;5076764;28;20199;-48
2022/07/10 10:26:23;;;;;;;2.90;0.88;;;;;;;;;;5077114;28;20211;-48
2022/07/10 10:28:54;;;;;;;3.90;0.75;;;;;;;;;;5076651;28;20234;-49
2022/07/10 10:31:22;;;;;;;2.17;0.80;;;;;;;;;;5082716;28;20505;-49
2022/07/10 10:33:51;;;;;;;4.07;0.90;;;;;;;;;;5087140;28;20305;-47
2022/07/10 10:36:44;;;;;;;3.05;0.70;;;;;;;;;;5094771;28;20264;-48
2022/07/10 10:39:13;;;;;;;4.30;0.82;;;;;;;;;;5096184;28;20233;-47
2022/07/10 10:41:51;;;;;;;6.63;0.90;;;;;;;;;;5095684;28;20218;-48
2022/07/10 10:44:18;;;;;;;3.90;0.73;;;;;;;;;;5086087;28;20305;-54
2022/07/10 10:46:54;;;;;;;3.67;1.05;;;;;;;;;;5087006;28;20287;-48
2022/07/10 10:49:25;;;;;;;3.15;0.90;;;;;;;;;;5094709;28;20692;-48
2022/07/10 10:52:01;;;;;;;3.42;0.70;;;;;;;;;;5094189;28;20280;-47
2022/07/10 10:54:34;;;;;;;1.25;0.60;;;;;;;;;;5089600;28;20211;-49
2022/07/10 10:57:18;;;;;;;2.72;0.70;;;;;;;;;;5093479;28;20229;-51
2022/07/10 10:59:48;;;;;;;4.22;0.80;;;;;;;;;;5094714;28;20215;-48
2022/07/10 11:02:34;;;;;;;3.10;0.90;;;;;;;;;;5094398;28;20223;-48
2022/07/10 11:05:10;;;;;;;5.30;0.90;;;;;;;;;;5094037;28;20250;-47
2022/07/10 11:07:54;;;;;;;3.13;0.80;;;;;;;;;;5092611;28;20949;-49
2022/07/10 11:10:36;;;;;;;3.03;0.65;;;;;;;;;;5075311;28;20227;-43
2022/07/10 11:13:08;;;;;;;7.28;0.80;;;;;;;;;;5090432;28;20664;-44
2022/07/10 11:15:38;;;;;;;1.65;0.85;;;;;;;;;;5095275;28;20238;-44
2022/07/10 11:18:07;;;;;;;3.08;0.70;;;;;;;;;;5094790;28;20680;-44
2022/07/10 11:20:35;;;;;;;4.97;0.77;;;;;;;;;;5093529;28;20219;-47
2022/07/10 11:23:02;;;;;;;4.05;0.65;;;;;;;;;;5089063;28;20211;-47
2022/07/10 11:25:44;;;;;;;2.88;0.60;;;;;;;;;;5094959;28;20215;-47
2022/07/10 11:28:12;;;;;;;3.08;0.80;;;;;;;;;;5093777;28;20242;-45
2022/07/10 11:30:43;;;;;;;4.30;0.70;;;;;;;;;;5094147;28;20214;-47
2022/07/10 11:33:11;;;;;;;4.18;0.60;;;;;;;;;;5094744;28;20748;-45
2022/07/10 11:35:40;;;;;;;2.88;0.70;;;;;;;;;;5094512;28;21025;-47
2022/07/10 11:38:07;;;;;;;3.03;0.40;;;;;;;;;;5094715;28;20242;-48
2022/07/10 11:40:40;;;;;;;6.13;0.55;;;;;;;;;;5094811;28;20245;-49
2022/07/10 11:43:09;;;;;;;0.80;0.35;;;;;;;;;;5094684;28;20214;-46
2022/07/10 11:45:38;;;;;;;1.85;0.77;;;;;;;;;;5094488;28;20223;-49
2022/07/10 11:48:07;;;;;;;1.10;0.50;;;;;;;;;;5094737;28;20334;-46
2022/07/10 11:50:36;;;;;;;1.70;0.30;;;;;;;;;;5094292;28;20309;-48
2022/07/10 11:53:04;;;;;;;2.70;0.65;;;;;;;;;;5094537;28;20226;-44
2022/07/10 11:55:36;;;;;;;1.83;0.70;;;;;;;;;;5091643;28;20225;-47
2022/07/10 11:58:16;;;;;;;3.75;0.57;;;;;;;;;;5093924;28;20218;-46
2022/07/10 12:00:43;;;;;;;4.72;0.40;;;;;;;;;;5092812;27;20225;-47
2022/07/10 12:03:19;;;;;;;3.55;0.65;;;;;;;;;;5090981;28;20218;-45
2022/07/10 12:05:52;;;;;;;1.00;0.60;;;;;;;;;;5091694;28;20223;-44
2022/07/10 12:08:20;;;;;;;4.05;0.60;;;;;;;;;;5093392;28;20284;-45
2022/07/10 12:10:47;;;;;;;2.78;0.80;;;;;;;;;;5093014;28;20223;-43
2022/07/10 12:13:15;;;;;;;3.47;0.70;;;;;;;;;;5093698;28;20700;-44
2022/07/10 12:15:44;;;;;;;3.15;0.68;;;;;;;;;;5093868;28;20223;-44
2022/07/10 12:18:21;;;;;;;3.90;0.60;;;;;;;;;;5093995;28;20229;-44
2022/07/10 12:20:50;;;;;;;1.35;0.60;;;;;;;;;;5094275;28;20233;-44
2022/07/10 12:23:18;;;;;;;2.83;0.50;;;;;;;;;;5092723;28;20536;-47
2022/07/10 12:25:50;;;;;;;4.13;0.50;;;;;;;;;;5091013;28;20268;-47
2022/07/10 12:28:17;;;;;;;3.72;0.65;;;;;;;;;;5094655;28;20241;-49
2022/07/10 12:30:51;;;;;;;2.08;0.63;;;;;;;;;;5093962;27;20238;-47
2022/07/10 12:33:22;;;;;;;4.78;0.68;;;;;;;;;;5094123;28;20226;-49
2022/07/10 12:35:53;;;;;;;3.38;0.65;;;;;;;;;;5092655;27;20214;-48
2022/07/10 12:38:22;;;;;;;3.97;0.85;;;;;;;;;;5092948;28;20218;-49
2022/07/10 12:40:50;;;;;;;2.35;0.45;;;;;;;;;;5093596;28;20279;-49
2022/07/10 12:43:29;;;;;;;2.72;0.80;;;;;;;;;;5093866;28;20245;-51
2022/07/10 12:46:15;;;;;;;2.67;1.00;;;;;;;;;;5073110;28;20234;-48
2022/07/10 12:48:45;;;;;;;2.75;0.85;;;;;;;;;;5087455;28;20234;-49
2022/07/10 12:51:23;;;;;;;3.58;0.73;;;;;;;;;;5072830;28;20227;-50
2022/07/10 12:53:50;;;;;;;5.18;0.80;;;;;;;;;;5073928;28;20227;-49
2022/07/10 12:56:28;;;;;;;3.10;1.17;;;;;;;;;;5073626;28;20235;-49
2022/07/10 12:58:56;;;;;;;2.70;0.98;;;;;;;;;;5073948;28;20288;-48
2022/07/10 13:01:23;;;;;;;5.63;1.05;;;;;;;;;;5073122;28;20672;-49
2022/07/10 13:03:58;;;;;;;3.67;1.35;;;;;;;;;;5079241;28;20254;-48
2022/07/10 13:06:30;;;;;;;3.47;1.13;;;;;;;;;;5090431;28;20274;-47
2022/07/10 13:08:56;;;;;;;4.50;1.00;;;;;;;;;;5082039;28;20665;-45
2022/07/10 13:11:23;;;;;;;5.07;1.00;;;;;;;;;;5086616;28;20223;-46
2022/07/10 13:13:51;;;;;;;7.05;0.93;;;;;;;;;;5088767;28;20218;-49
2022/07/10 13:16:18;;;;;;;1.98;0.55;;;;;;;;;;5084566;28;20696;-47
2022/07/10 13:18:45;;;;;;;3.08;0.70;;;;;;;;;;5077731;28;20223;-47
2022/07/10 13:21:12;;;;;;;1.17;0.60;;;;;;;;;;5078885;28;20251;-47
2022/07/10 13:23:39;;;;;;;3.90;0.65;;;;;;;;;;5084310;28;20223;-48
2022/07/10 13:26:09;;;;;;;4.05;0.68;;;;;;;;;;5084117;28;20687;-45
2022/07/10 13:28:36;;;;;;;2.28;0.70;;;;;;;;;;5096684;28;20227;-50
2022/07/10 13:31:04;;;;;;;6.90;0.80;;;;;;;;;;5096580;28;20279;-47
2022/07/10 13:33:31;;;;;;;1.67;0.70;;;;;;;;;;5094362;28;20223;-44
2022/07/10 13:36:00;;;;;;;2.25;0.80;;;;;;;;;;5095464;28;20230;-46
2022/07/10 13:38:27;;;;;;;5.10;0.85;;;;;;;;;;5096186;28;20230;-47
2022/07/10 13:40:54;;;;;;;5.07;0.70;;;;;;;;;;5096679;28;20536;-47
2022/07/10 13:43:26;;;;;;;1.95;0.80;;;;;;;;;;5096773;28;20275;-47
2022/07/10 13:45:53;;;;;;;9.45;0.80;;;;;;;;;;5094030;28;20541;-47
2022/07/10 13:48:20;;;;;;;1.67;0.68;;;;;;;;;;5096785;28;20249;-49
2022/07/10 13:50:48;;;;;;;5.57;0.82;;;;;;;;;;5097488;28;20242;-49
2022/07/10 13:53:16;;;;;;;2.47;0.85;;;;;;;;;;5097340;28;20226;-51
2022/07/10 13:55:43;;;;;;;2.13;0.80;;;;;;;;;;5097354;28;20287;-51
2022/07/10 13:58:11;;;;;;;1.08;0.70;;;;;;;;;;5097389;28;20251;-47
2022/07/10 14:00:38;;;;;;;5.28;0.68;;;;;;;;;;5096608;28;20231;-47
2022/07/10 14:03:07;;;;;;;4.15;1.17;;;;;;;;;;5096994;28;20237;-51
2022/07/10 14:05:34;;;;;;;3.88;0.93;;;;;;;;;;5096756;28;20230;-50
2022/07/10 14:08:02;;;;;;;2.00;0.75;;;;;;;;;;5097099;28;20233;-49
2022/07/10 14:10:29;;;;;;;2.30;0.80;;;;;;;;;;5097088;28;20349;-48
2022/07/10 14:12:57;;;;;;;6.30;0.77;;;;;;;;;;5095745;28;20226;-48
2022/07/10 14:15:24;;;;;;;4.15;0.80;;;;;;;;;;5096377;28;20234;-48
2022/07/10 14:17:51;;;;;;;1.75;0.60;;;;;;;;;;5095575;28;20571;-48
2022/07/10 14:20:19;;;;;;;0.77;0.70;;;;;;;;;;5096730;28;20222;-49
2022/07/10 14:22:47;;;;;;;1.42;0.40;;;;;;;;;;5096513;28;20238;-48
2022/07/10 14:25:14;;;;;;;0.75;0.50;;;;;;;;;;5096489;28;20222;-50
2022/07/10 14:27:41;;;;;;;3.38;0.63;;;;;;;;;;5096206;28;20229;-48
2022/07/10 14:30:09;;;;;;;2.85;0.75;;;;;;;;;;5096583;28;20238;-48
2022/07/10 14:32:36;;;;;;;3.60;0.70;;;;;;;;;;5096268;28;20223;-48
2022/07/10 14:35:04;;;;;;;3.30;0.68;;;;;;;;;;5096712;28;20249;-47
2022/07/10 14:37:31;;;;;;;3.15;0.50;;;;;;;;;;5096008;28;20226;-47
2022/07/10 14:39:58;;;;;;;4.40;0.65;;;;;;;;;;5091141;28;20227;-49
2022/07/10 14:42:25;;;;;;;2.42;0.68;;;;;;;;;;5076482;28;20259;-49
2022/07/10 14:44:52;;;;;;;2.15;0.70;;;;;;;;;;5075623;28;20227;-53
2022/07/10 14:47:19;;;;;;;3.72;0.88;;;;;;;;;;5084362;28;20218;-51
2022/07/10 14:49:46;;;;;;;5.15;0.80;;;;;;;;;;5094738;28;20250;-49
2022/07/10 14:52:14;;;;;;;2.92;0.80;;;;;;;;;;5095975;28;20668;-47
2022/07/10 14:54:41;;;;;;;1.83;0.68;;;;;;;;;;5094433;28;20664;-48
2022/07/10 14:57:08;;;;;;;2.80;0.80;;;;;;;;;;5095223;28;20223;-48
2022/07/10 14:59:35;;;;;;;1.63;0.73;;;;;;;;;;5093321;28;20234;-51
2022/07/10 15:02:03;;;;;;;3.60;0.80;;;;;;;;;;5093414;28;20575;-50
2022/07/10 15:04:30;;;;;;;3.90;0.68;;;;;;;;;;5092667;28;20548;-47
2022/07/10 15:06:57;;;;;;;5.70;0.60;;;;;;;;;;5094961;28;20595;-52